Terminal Aerodrome Forecast
Issued by NWS

Home | Current Version | Previous Version | Text Only | Print | Product List | Glossary On
Versions: 1 2 3 4 5 6 7 8 9 10 11 12 13 14 15
000
FTUS46 KSGX 040520
TAFONT
TAF
KONT 040520Z 0406/0512 26006KT P6SM FEW012
     FM040900 VRB05KT P6SM OVC015
     FM041500 VRB04KT P6SM OVC020
     FM041700 VRB04KT P6SM SCT022
     FM042000 25011G18KT P6SM FEW100
     FM050400 26006KT P6SM SCT015
     FM050700 VRB04KT P6SM BKN020=

USA.gov is the U.S. government's official web portal to all federal, state and local government web resources and services.